Time;durP1;ratioP1;P1;durP2;ratioP2;P2;SDS_P1;SDS_P2;PMS_P1;PMS_P2;Temp;Humidity;BMP_temperature;BMP_pressure;BME280_temperature;BME280_humidity;BME280_pressure;Samples;Min_cycle;Max_cycle;Signal;HPM_P1;HPM_P2
2021/09/03 00:00:05;;;;;;;0.55;0.55;;;18.30;98.70;;;;;;5106230;27;20459;-84
2021/09/03 00:02:30;;;;;;;0.10;0.10;;;18.40;98.10;;;;;;5102008;28;20062;-85
2021/09/03 00:04:56;;;;;;;0.70;0.20;;;18.30;98.30;;;;;;5101036;27;20028;-84
2021/09/03 00:07:22;;;;;;;0.17;0.17;;;18.40;98.20;;;;;;5096609;27;20101;-83
2021/09/03 00:09:47;;;;;;;0.07;0.07;;;18.40;98.50;;;;;;5100847;27;20042;-85
2021/09/03 00:12:13;;;;;;;0.33;0.33;;;18.50;98.70;;;;;;5104380;28;20576;-86
2021/09/03 00:14:39;;;;;;;0.00;0.00;;;18.50;98.30;;;;;;5103096;27;20040;-85
2021/09/03 00:17:04;;;;;;;0.47;0.47;;;18.30;98.20;;;;;;5103229;27;20040;-86
2021/09/03 00:19:30;;;;;;;0.00;0.00;;;18.40;98.40;;;;;;5103108;27;20034;-85
2021/09/03 00:21:56;;;;;;;0.05;0.03;;;18.40;98.70;;;;;;5102406;28;20370;-85
2021/09/03 00:24:22;;;;;;;0.03;0.03;;;18.30;98.70;;;;;;5104429;28;20027;-86
2021/09/03 00:26:49;;;;;;;0.50;0.50;;;18.30;98.70;;;;;;5101909;28;20087;-84
2021/09/03 00:29:15;;;;;;;0.10;0.10;;;18.40;98.60;;;;;;5101575;28;20554;-85
2021/09/03 00:31:41;;;;;;;0.53;0.20;;;18.40;98.90;;;;;;5107784;27;20027;-86
2021/09/03 00:34:07;;;;;;;0.27;0.27;;;18.40;98.50;;;;;;5103966;27;20489;-86
2021/09/03 00:36:32;;;;;;;1.30;0.10;;;18.30;99.10;;;;;;5101736;27;20052;-84
2021/09/03 00:38:58;;;;;;;0.23;0.23;;;18.40;98.80;;;;;;5109056;27;20027;-85
2021/09/03 00:41:24;;;;;;;1.03;0.90;;;18.30;98.90;;;;;;5098813;28;20035;-85
2021/09/03 00:43:49;;;;;;;0.20;0.20;;;18.20;99.30;;;;;;5101292;27;20032;-85
2021/09/03 00:46:15;;;;;;;0.03;0.03;;;18.20;99.10;;;;;;5095616;28;20066;-85
2021/09/03 00:48:41;;;;;;;0.30;0.30;;;18.20;99.90;;;;;;5106633;27;20063;-85
2021/09/03 00:51:07;;;;;;;0.27;0.27;;;18.20;99.60;;;;;;5104054;27;20374;-85
2021/09/03 00:53:35;;;;;;;0.03;0.03;;;18.20;99.60;;;;;;5100464;27;20282;-84
2021/09/03 00:56:01;;;;;;;0.10;0.10;;;18.20;99.70;;;;;;5099174;28;20032;-84
2021/09/03 00:58:27;;;;;;;0.00;0.00;;;18.20;99.60;;;;;;5101475;27;20036;-85
2021/09/03 01:00:53;;;;;;;0.35;0.35;;;18.20;99.70;;;;;;5102463;27;20541;-86
2021/09/03 01:03:19;;;;;;;0.23;0.23;;;18.30;99.40;;;;;;5096937;28;20197;-85
2021/09/03 01:05:45;;;;;;;0.10;0.10;;;18.40;99.10;;;;;;5097356;27;20532;-85
2021/09/03 01:08:11;;;;;;;1.55;0.20;;;18.40;99.20;;;;;;5104193;27;20481;-84
2021/09/03 01:10:38;;;;;;;0.55;0.40;;;18.50;98.80;;;;;;5099202;28;20071;-83
2021/09/03 01:13:04;;;;;;;0.00;0.00;;;18.50;98.70;;;;;;5104213;27;20058;-84
2021/09/03 01:15:29;;;;;;;0.00;0.00;;;18.40;99.40;;;;;;5099503;28;20485;-84
2021/09/03 01:17:55;;;;;;;0.17;0.17;;;18.40;98.80;;;;;;5102639;27;20079;-84
2021/09/03 01:20:21;;;;;;;0.10;0.10;;;18.40;99.00;;;;;;5101734;27;20374;-85
2021/09/03 01:22:47;;;;;;;0.30;0.30;;;18.40;99.10;;;;;;5100348;28;20066;-85
2021/09/03 01:25:15;;;;;;;0.13;0.13;;;18.50;98.90;;;;;;5100481;27;20374;-85
2021/09/03 01:27:41;;;;;;;0.50;0.35;;;18.50;99.00;;;;;;5102136;28;20042;-84
2021/09/03 01:30:09;;;;;;;;;;;18.50;98.80;;;;;;5099894;28;20072;-85
2021/09/03 01:32:35;;;;;;;0.10;0.10;;;18.50;98.90;;;;;;5106340;27;19911;-85
2021/09/03 01:35:00;;;;;;;0.10;0.10;;;18.50;98.70;;;;;;5098905;28;20022;-86
2021/09/03 01:37:26;;;;;;;0.13;0.13;;;18.50;98.80;;;;;;5101559;27;20799;-84
2021/09/03 01:39:51;;;;;;;0.10;0.10;;;18.40;98.90;;;;;;5104263;27;20081;-85
2021/09/03 01:42:17;;;;;;;0.10;0.10;;;18.50;99.10;;;;;;5098127;27;20027;-85
2021/09/03 01:44:43;;;;;;;0.10;0.10;;;18.40;98.90;;;;;;5099299;27;20130;-85
2021/09/03 01:47:09;;;;;;;0.00;0.00;;;18.30;99.00;;;;;;5101504;27;20059;-86
2021/09/03 01:49:34;;;;;;;0.10;0.10;;;18.30;99.70;;;;;;5100653;27;20032;-84
2021/09/03 01:52:00;;;;;;;2.90;0.10;;;18.30;99.40;;;;;;5100525;27;20042;-84
2021/09/03 01:54:26;;;;;;;0.30;0.30;;;18.30;99.50;;;;;;5103320;28;20046;-85
2021/09/03 01:56:51;;;;;;;0.10;0.10;;;18.20;50.40;;;;;;5094492;28;20565;-85
2021/09/03 01:59:17;;;;;;;0.20;0.20;;;17.20;99.90;;;;;;5102866;27;20118;-84
2021/09/03 02:01:43;;;;;;;0.10;0.10;;;17.40;99.90;;;;;;5097536;28;20067;-84
2021/09/03 02:04:08;;;;;;;0.10;0.10;;;17.40;99.90;;;;;;5102603;27;20407;-85
2021/09/03 02:06:34;;;;;;;0.00;0.00;;;17.80;99.90;;;;;;5098817;28;20844;-85
2021/09/03 02:09:00;;;;;;;0.10;0.10;;;18.10;99.90;;;;;;5102621;27;20027;-85
2021/09/03 02:11:25;;;;;;;0.27;0.27;;;18.10;99.90;;;;;;5100469;28;20032;-85
2021/09/03 02:13:51;;;;;;;0.20;0.10;;;18.10;99.90;;;;;;5103499;27;20031;-85
2021/09/03 02:16:17;;;;;;;0.17;0.17;;;18.10;99.90;;;;;;5098364;28;20462;-85
2021/09/03 02:18:42;;;;;;;1.77;0.90;;;18.20;99.90;;;;;;5097020;28;20039;-84
2021/09/03 02:21:08;;;;;;;1.50;1.03;;;18.10;99.90;;;;;;5098911;28;20034;-85
2021/09/03 02:23:34;;;;;;;0.10;0.10;;;18.10;99.90;;;;;;5098260;28;20055;-85
2021/09/03 02:25:59;;;;;;;0.30;0.30;;;18.20;99.90;;;;;;5098781;27;20071;-85
2021/09/03 02:28:25;;;;;;;0.20;0.20;;;18.20;99.90;;;;;;5096598;28;20739;-86
2021/09/03 02:30:51;;;;;;;0.00;0.00;;;18.20;99.90;;;;;;5100552;28;20692;-84
2021/09/03 02:33:16;;;;;;;1.13;0.53;;;18.30;99.90;;;;;;5099745;27;20028;-85
2021/09/03 02:35:43;;;;;;;0.00;0.00;;;18.30;99.90;;;;;;5101114;27;20031;-85
2021/09/03 02:38:10;;;;;;;4.88;1.67;;;18.20;99.90;;;;;;5093663;28;20048;-85
2021/09/03 02:40:37;;;;;;;4.90;0.25;;;18.10;99.90;;;;;;5099487;28;20209;-85
2021/09/03 02:43:02;;;;;;;;;;;17.90;99.90;;;;;;5096169;27;20048;-85
2021/09/03 02:45:28;;;;;;;0.13;0.13;;;18.00;99.90;;;;;;5101690;27;19947;-85
2021/09/03 02:47:54;;;;;;;0.10;0.10;;;18.20;99.90;;;;;;5096748;28;20470;-85
2021/09/03 02:50:20;;;;;;;0.20;0.10;;;18.40;99.90;;;;;;5099965;27;20285;-85
2021/09/03 02:52:46;;;;;;;0.20;0.20;;;18.40;99.90;;;;;;5098751;27;20114;-85
2021/09/03 02:55:12;;;;;;;0.10;0.10;;;18.00;99.90;;;;;;5098478;28;20089;-85
2021/09/03 02:57:38;;;;;;;0.20;0.20;;;17.90;99.90;;;;;;5101405;28;20048;-85
2021/09/03 03:00:08;;;;;;;0.20;0.20;;;18.00;99.90;;;;;;5100598;28;20402;-86
2021/09/03 03:02:34;;;;;;;0.10;0.10;;;18.10;99.90;;;;;;5103609;27;20032;-85
2021/09/03 03:05:00;;;;;;;0.10;0.10;;;18.10;99.90;;;;;;5104125;28;20027;-86
2021/09/03 03:07:26;;;;;;;0.35;0.32;;;17.90;99.90;;;;;;5112457;27;20130;-86
2021/09/03 03:09:52;;;;;;;0.10;0.10;;;17.90;99.90;;;;;;5102646;28;20513;-86
2021/09/03 03:12:20;;;;;;;0.20;0.20;;;17.80;99.90;;;;;;5099018;28;20055;-85
2021/09/03 03:14:45;;;;;;;0.10;0.10;;;17.80;99.90;;;;;;5097754;28;20030;-85
2021/09/03 03:17:11;;;;;;;0.00;0.00;;;17.90;99.90;;;;;;5099249;28;20036;-84
2021/09/03 03:19:37;;;;;;;0.60;0.40;;;18.10;99.90;;;;;;5101118;28;20024;-85
2021/09/03 03:22:03;;;;;;;0.00;0.00;;;18.10;99.90;;;;;;5102724;27;20053;-86
2021/09/03 03:24:29;;;;;;;0.37;0.37;;;18.10;99.90;;;;;;5095711;28;20123;-87
2021/09/03 03:26:55;;;;;;;0.40;0.20;;;18.10;99.90;;;;;;5100243;28;20303;-87
2021/09/03 03:29:22;;;;;;;1.45;0.90;;;18.00;99.90;;;;;;5098213;28;20409;-87
2021/09/03 03:31:47;;;;;;;0.30;0.30;;;17.90;99.90;;;;;;5102438;28;20296;-86
2021/09/03 03:34:13;;;;;;;0.40;0.40;;;17.30;99.90;;;;;;5114899;28;20456;-85
2021/09/03 03:36:39;;;;;;;0.10;0.10;;;17.50;99.90;;;;;;5101058;28;20132;-87
2021/09/03 03:39:06;;;;;;;0.10;0.10;;;19.60;99.90;;;;;;5094256;28;20035;-86
2021/09/03 03:41:33;;;;;;;0.20;0.20;;;19.80;99.90;;;;;;5101123;28;20080;-86
2021/09/03 03:43:59;;;;;;;0.47;0.20;;;20.00;99.90;;;;;;5104154;27;20026;-85
2021/09/03 03:46:25;;;;;;;0.23;0.23;;;20.00;99.90;;;;;;5096533;28;20028;-87
2021/09/03 03:48:50;;;;;;;2.23;0.53;;;20.30;99.90;;;;;;5101462;28;20019;-85
2021/09/03 03:51:17;;;;;;;0.20;0.20;;;19.00;99.90;;;;;;5101021;28;20430;-85
2021/09/03 03:53:42;;;;;;;0.15;0.15;;;18.90;99.90;;;;;;5101222;28;20504;-86
2021/09/03 03:56:08;;;;;;;0.30;0.30;;;18.80;99.90;;;;;;5097691;27;20132;-84
2021/09/03 03:58:34;;;;;;;0.47;0.47;;;18.60;99.90;;;;;;5104280;28;20551;-86
2021/09/03 04:01:00;;;;;;;0.83;0.60;;;18.70;99.90;;;;;;5100713;27;20034;-86
2021/09/03 04:03:25;;;;;;;3.10;1.10;;;19.00;99.90;;;;;;5095178;28;20057;-86
2021/09/03 04:05:51;;;;;;;4.10;0.77;;;18.90;99.90;;;;;;5098525;28;20067;-84
2021/09/03 04:08:17;;;;;;;0.00;0.00;;;18.80;99.90;;;;;;5098755;28;20043;-86
2021/09/03 04:10:42;;;;;;;0.10;0.10;;;18.80;99.90;;;;;;5095924;28;20039;-85
2021/09/03 04:13:08;;;;;;;0.10;0.10;;;18.80;99.90;;;;;;5098319;28;20630;-85
2021/09/03 04:15:34;;;;;;;0.50;0.50;;;18.70;99.90;;;;;;5102998;28;20027;-86
2021/09/03 04:17:59;;;;;;;0.10;0.10;;;18.60;99.90;;;;;;5100832;28;20536;-86
2021/09/03 04:20:25;;;;;;;0.63;0.63;;;18.40;99.90;;;;;;5106562;27;20560;-86
2021/09/03 04:22:52;;;;;;;0.90;0.90;;;18.30;99.90;;;;;;5101331;28;20028;-85
2021/09/03 04:25:17;;;;;;;14.90;0.70;;;18.40;99.90;;;;;;5104734;27;20111;-89
2021/09/03 04:27:43;;;;;;;0.40;0.40;;;18.40;99.90;;;;;;5104401;27;20158;-87
2021/09/03 04:30:10;;;;;;;0.30;0.30;;;18.30;99.90;;;;;;5105908;27;20294;-85
2021/09/03 04:32:37;;;;;;;0.22;0.22;;;18.50;99.90;;;;;;5101944;28;20092;-85
2021/09/03 04:35:03;;;;;;;;;;;18.30;99.90;;;;;;5102535;28;20076;-86
2021/09/03 04:37:29;;;;;;;0.47;0.35;;;18.30;99.90;;;;;;5101701;27;19920;-86
2021/09/03 04:39:54;;;;;;;1.30;1.03;;;18.30;99.90;;;;;;5098167;28;20036;-87
2021/09/03 04:42:20;;;;;;;0.37;0.37;;;18.20;99.90;;;;;;5101761;28;20102;-86
2021/09/03 04:44:46;;;;;;;0.30;0.30;;;18.40;99.90;;;;;;5094148;28;20027;-86
2021/09/03 04:47:11;;;;;;;0.33;0.33;;;18.40;99.90;;;;;;5103590;27;20150;-87
2021/09/03 04:49:37;;;;;;;0.43;0.43;;;18.30;99.90;;;;;;5093038;28;20035;-86
2021/09/03 04:52:03;;;;;;;0.37;0.37;;;18.30;99.90;;;;;;5101802;28;20040;-87
2021/09/03 04:54:29;;;;;;;0.20;0.20;;;18.30;99.90;;;;;;5097789;28;20031;-87
2021/09/03 04:56:54;;;;;;;0.40;0.40;;;18.30;99.90;;;;;;5099588;28;20047;-87
2021/09/03 04:59:20;;;;;;;0.17;0.17;;;18.30;99.90;;;;;;5097238;28;20490;-88
2021/09/03 05:01:46;;;;;;;0.30;0.30;;;18.10;99.90;;;;;;5101429;27;20035;-86
2021/09/03 05:04:11;;;;;;;0.17;0.17;;;18.00;99.90;;;;;;5094773;27;20062;-87
2021/09/03 05:06:37;;;;;;;0.73;0.67;;;17.80;99.90;;;;;;5129924;27;20498;-87
2021/09/03 05:09:03;;;;;;;0.40;0.40;;;17.30;99.90;;;;;;5099926;27;20032;-86
2021/09/03 05:11:28;;;;;;;0.20;0.20;;;17.40;99.90;;;;;;5100225;28;20023;-87
2021/09/03 05:13:54;;;;;;;0.30;0.30;;;17.50;99.90;;;;;;5099492;28;20259;-86
2021/09/03 05:16:20;;;;;;;1.13;0.73;;;17.50;99.90;;;;;;5098982;27;20838;-87
2021/09/03 05:18:46;;;;;;;0.67;0.67;;;17.50;99.90;;;;;;5098221;27;20024;-87
2021/09/03 05:21:11;;;;;;;0.87;0.50;;;17.50;99.90;;;;;;5102110;27;20113;-87
2021/09/03 05:23:37;;;;;;;0.40;0.40;;;17.50;99.90;;;;;;5098077;27;20028;-87
2021/09/03 05:26:03;;;;;;;0.60;0.53;;;17.50;99.90;;;;;;5098667;28;20023;-88
2021/09/03 05:28:29;;;;;;;4.70;0.20;;;17.50;99.90;;;;;;5096602;28;20414;-87
2021/09/03 05:30:55;;;;;;;0.57;0.30;;;17.50;99.90;;;;;;5096565;28;20040;-86
2021/09/03 05:33:21;;;;;;;0.65;0.30;;;17.50;99.90;;;;;;5100532;28;20051;-87
2021/09/03 05:35:47;;;;;;;0.47;0.47;;;17.50;99.90;;;;;;5093911;27;20505;-87
2021/09/03 05:38:13;;;;;;;1.75;0.88;;;17.50;99.90;;;;;;5096156;28;20044;-87
2021/09/03 05:40:39;;;;;;;0.40;0.40;;;17.50;99.90;;;;;;5090464;28;20571;-91
2021/09/03 05:43:05;;;;;;;0.53;0.53;;;17.50;99.90;;;;;;5106325;27;20024;-90
2021/09/03 05:45:35;;;;;;;0.20;0.20;;;17.50;99.90;;;;;;5123185;27;20027;-91
2021/09/03 05:48:02;;;;;;;0.10;0.10;;;17.50;99.90;;;;;;5091476;28;20119;-89
2021/09/03 05:50:28;;;;;;;0.52;0.52;;;17.50;99.90;;;;;;5095492;28;20065;-90
2021/09/03 05:52:54;;;;;;;0.10;0.10;;;17.70;99.90;;;;;;5099126;28;20114;-88
2021/09/03 05:55:20;;;;;;;0.50;0.50;;;17.70;99.90;;;;;;5112116;27;20281;-89
2021/09/03 05:57:47;;;;;;;0.20;0.20;;;17.70;99.90;;;;;;5087884;28;20656;-90
2021/09/03 06:00:13;;;;;;;;;;;17.70;99.90;;;;;;5090310;28;20262;-90
2021/09/03 06:02:39;;;;;;;2.53;1.02;;;17.80;99.90;;;;;;5096817;28;19992;-90
2021/09/03 06:05:05;;;;;;;0.90;0.90;;;17.80;99.90;;;;;;5104431;27;20032;-91
2021/09/03 06:07:31;;;;;;;0.20;0.20;;;17.70;99.90;;;;;;5105549;27;20421;-89
2021/09/03 06:09:56;;;;;;;0.10;0.10;;;17.70;99.90;;;;;;5115893;27;20042;-90
2021/09/03 06:12:22;;;;;;;0.30;0.30;;;17.50;99.90;;;;;;5100763;28;20035;-89
2021/09/03 06:14:47;;;;;;;0.33;0.30;;;17.50;99.90;;;;;;5098482;27;20046;-90
2021/09/03 06:17:13;;;;;;;0.57;0.57;;;17.40;99.90;;;;;;5093514;28;20085;-88
2021/09/03 06:19:40;;;;;;;0.00;0.00;;;17.50;99.90;;;;;;5096324;27;20035;-90
2021/09/03 06:22:05;;;;;;;0.40;0.40;;;17.50;99.90;;;;;;5099143;27;20035;-91
2021/09/03 06:24:32;;;;;;;0.20;0.20;;;17.60;99.90;;;;;;5089400;28;20032;-91
2021/09/03 06:27:03;;;;;;;0.00;0.00;;;17.70;99.90;;;;;;5088405;28;20081;-92
2021/09/03 06:29:41;;;;;;;0.20;0.20;;;17.60;99.90;;;;;;5091326;28;20032;-91
2021/09/03 06:32:21;;;;;;;0.20;0.20;;;17.60;99.90;;;;;;5089913;28;20577;-90
2021/09/03 06:34:49;;;;;;;1.52;1.13;;;17.60;99.90;;;;;;5100939;28;20573;-90
2021/09/03 06:37:15;;;;;;;0.38;0.38;;;17.70;99.90;;;;;;5087192;28;20992;-90
2021/09/03 06:39:42;;;;;;;1.15;1.08;;;17.80;99.90;;;;;;5088263;28;20561;-90
2021/09/03 06:42:08;;;;;;;;;;;17.80;99.90;;;;;;5100438;28;20053;-92
2021/09/03 06:44:35;;;;;;;0.50;0.50;;;17.80;99.90;;;;;;5098682;28;19912;-90
2021/09/03 06:47:02;;;;;;;1.08;0.95;;;17.90;99.90;;;;;;5097858;28;20035;-91
2021/09/03 06:49:29;;;;;;;0.10;0.10;;;17.80;99.90;;;;;;5089045;28;20509;-90
2021/09/03 06:51:55;;;;;;;22.02;1.73;;;17.90;99.90;;;;;;5086680;28;20141;-90
2021/09/03 06:54:21;;;;;;;0.30;0.30;;;17.90;99.90;;;;;;5089907;28;20032;-91
2021/09/03 06:56:47;;;;;;;0.43;0.30;;;17.90;99.90;;;;;;5097652;28;20397;-90
2021/09/03 06:59:13;;;;;;;0.32;0.30;;;18.00;99.90;;;;;;5099301;28;20136;-91
2021/09/03 07:01:39;;;;;;;0.10;0.10;;;18.00;99.90;;;;;;5088728;28;20070;-89
2021/09/03 07:04:04;;;;;;;0.20;0.20;;;18.10;99.90;;;;;;5104739;28;20139;-91
2021/09/03 07:06:30;;;;;;;1.87;0.50;;;18.10;99.90;;;;;;5085293;28;20048;-90
2021/09/03 07:08:57;;;;;;;0.10;0.10;;;18.00;99.90;;;;;;5091132;28;20414;-91
2021/09/03 07:11:23;;;;;;;0.20;0.20;;;18.00;99.90;;;;;;5093420;28;20585;-91
2021/09/03 07:13:48;;;;;;;5.13;1.70;;;18.00;99.90;;;;;;5097336;28;20044;-91
2021/09/03 07:16:14;;;;;;;0.30;0.30;;;18.10;99.90;;;;;;5101220;28;20437;-91
2021/09/03 07:18:40;;;;;;;0.10;0.10;;;18.10;99.90;;;;;;5101776;28;20401;-91
2021/09/03 07:21:06;;;;;;;0.20;0.20;;;18.10;99.90;;;;;;5086548;28;20583;-90
2021/09/03 07:23:32;;;;;;;0.22;0.22;;;18.10;99.90;;;;;;5094751;28;20030;-90
2021/09/03 07:26:00;;;;;;;0.20;0.20;;;18.20;99.90;;;;;;5096395;28;20040;-90
2021/09/03 07:28:26;;;;;;;0.55;0.40;;;18.30;99.90;;;;;;5087777;28;20027;-91
2021/09/03 07:30:52;;;;;;;2.03;0.30;;;18.40;99.90;;;;;;5101964;28;20544;-89
2021/09/03 07:33:18;;;;;;;0.30;0.30;;;18.50;99.90;;;;;;5103789;28;20028;-91
2021/09/03 07:35:45;;;;;;;0.40;0.40;;;18.60;99.90;;;;;;5093087;28;20141;-89
2021/09/03 07:38:11;;;;;;;0.20;0.20;;;18.80;99.90;;;;;;5094704;28;20043;-90
2021/09/03 07:40:37;;;;;;;0.93;0.77;;;18.90;99.90;;;;;;5098644;28;20028;-89
2021/09/03 07:43:06;;;;;;;0.68;0.68;;;19.20;99.90;;;;;;5103173;28;20032;-90
2021/09/03 07:45:37;;;;;;;3.13;0.30;;;19.10;99.90;;;;;;5085235;28;20383;-90
2021/09/03 07:48:02;;;;;;;0.30;0.30;;;19.10;99.90;;;;;;5086796;28;20125;-90
2021/09/03 07:50:29;;;;;;;0.10;0.10;;;19.30;99.90;;;;;;5091245;28;20521;-90
2021/09/03 07:52:54;;;;;;;0.82;0.80;;;19.30;99.90;;;;;;5089569;28;20078;-91
2021/09/03 07:55:21;;;;;;;0.43;0.23;;;19.40;99.90;;;;;;5102331;28;20541;-89
2021/09/03 07:57:46;;;;;;;0.38;0.32;;;19.80;99.90;;;;;;5104750;28;20254;-89
2021/09/03 08:00:12;;;;;;;6.57;0.43;;;19.80;99.90;;;;;;5088158;28;20028;-88
2021/09/03 08:02:38;;;;;;;0.43;0.43;;;20.50;99.90;;;;;;5098799;28;20055;-89
2021/09/03 08:05:05;;;;;;;0.27;0.27;;;21.10;99.90;;;;;;5101543;28;20035;-88
2021/09/03 08:07:31;;;;;;;;;;;21.30;99.90;;;;;;5102515;28;20174;-88
2021/09/03 08:09:57;;;;;;;0.10;0.10;;;21.30;99.90;;;;;;5104887;28;19916;-89
2021/09/03 08:12:23;;;;;;;0.52;0.52;;;21.20;99.90;;;;;;5103459;28;20030;-89
2021/09/03 08:14:49;;;;;;;0.52;0.52;;;21.30;99.90;;;;;;5101091;28;20485;-88
2021/09/03 08:17:15;;;;;;;1.53;1.33;;;20.90;99.90;;;;;;5100655;28;20032;-88
2021/09/03 08:19:40;;;;;;;1.07;0.30;;;20.50;99.90;;;;;;5099996;28;20031;-89
2021/09/03 08:22:06;;;;;;;0.07;0.07;;;20.60;99.90;;;;;;5104910;28;20021;-88
2021/09/03 08:24:32;;;;;;;0.17;0.17;;;20.70;99.90;;;;;;5103566;28;20023;-88
2021/09/03 08:26:58;;;;;;;0.40;0.40;;;20.80;99.90;;;;;;5100559;28;20042;-88
2021/09/03 08:29:24;;;;;;;0.20;0.20;;;20.80;99.90;;;;;;5100243;28;20055;-88
2021/09/03 08:31:49;;;;;;;0.20;0.20;;;21.10;99.90;;;;;;5101069;27;20099;-88
2021/09/03 08:34:16;;;;;;;1.20;0.40;;;21.00;99.90;;;;;;5103103;28;20285;-88
2021/09/03 08:36:42;;;;;;;0.10;0.10;;;20.70;99.90;;;;;;5103408;28;20044;-88
2021/09/03 08:39:08;;;;;;;0.30;0.27;;;20.90;99.90;;;;;;5134702;27;20039;-87
2021/09/03 08:41:36;;;;;;;0.00;0.00;;;21.00;99.90;;;;;;5099991;28;20505;-88
2021/09/03 08:44:01;;;;;;;0.22;0.22;;;21.60;99.90;;;;;;5100140;28;20057;-88
2021/09/03 08:46:28;;;;;;;0.10;0.10;;;21.40;99.90;;;;;;5101893;28;20028;-87
2021/09/03 08:48:54;;;;;;;;;;;22.80;99.90;;;;;;5104194;28;20417;-87
2021/09/03 08:51:20;;;;;;;0.00;0.00;;;23.80;99.90;;;;;;5102611;28;19908;-88
2021/09/03 08:53:46;;;;;;;0.43;0.35;;;22.20;99.90;;;;;;5100304;28;20046;-87
2021/09/03 08:56:12;;;;;;;0.10;0.10;;;22.20;99.90;;;;;;5095284;28;20040;-87
2021/09/03 08:58:38;;;;;;;;;;;22.20;99.90;;;;;;5089460;28;20284;-88
2021/09/03 09:01:10;;;;;;;0.20;0.20;;;22.30;99.90;;;;;;5135055;27;19919;-88
2021/09/03 09:03:38;;;;;;;0.10;0.10;;;22.90;99.90;;;;;;5104326;27;20046;-87
2021/09/03 09:06:04;;;;;;;0.28;0.28;;;23.50;99.90;;;;;;5102688;27;20570;-89
2021/09/03 09:08:32;;;;;;;0.40;0.20;;;24.20;99.90;;;;;;5097658;27;20078;-84
2021/09/03 09:10:58;;;;;;;0.10;0.10;;;23.70;99.90;;;;;;5100479;27;20114;-85
2021/09/03 09:13:30;;;;;;;0.53;0.30;;;24.10;99.90;;;;;;5088806;28;20107;-87
2021/09/03 09:16:17;;;;;;;0.10;0.10;;;24.30;99.90;;;;;;5102690;27;20110;-85
2021/09/03 09:18:46;;;;;;;0.38;0.38;;;24.10;99.90;;;;;;5109616;27;20528;-89
2021/09/03 09:21:19;;;;;;;3.53;1.38;;;24.70;99.90;;;;;;5101787;28;20759;-88
2021/09/03 09:23:50;;;;;;;9.80;0.25;;;24.60;99.90;;;;;;5094124;28;20097;-88
2021/09/03 09:26:18;;;;;;;9.13;0.65;;;25.10;99.90;;;;;;5088673;28;20032;-88
2021/09/03 09:28:44;;;;;;;0.10;0.10;;;26.40;99.90;;;;;;5089066;28;20024;-88
2021/09/03 09:31:10;;;;;;;0.28;0.20;;;27.40;99.90;;;;;;5106490;27;20070;-88
2021/09/03 09:33:43;;;;;;;0.20;0.20;;;27.70;99.90;;;;;;5088519;28;20127;-88
2021/09/03 09:36:08;;;;;;;0.47;0.47;;;26.80;99.90;;;;;;5102928;27;20035;-89
2021/09/03 09:38:36;;;;;;;0.30;0.23;;;26.40;99.90;;;;;;5105335;28;20040;-88
2021/09/03 09:41:12;;;;;;;0.00;0.00;;;26.40;99.90;;;;;;5100954;28;20032;-88
2021/09/03 09:43:45;;;;;;;0.00;0.00;;;26.00;99.90;;;;;;5099595;28;20035;-88
2021/09/03 09:46:19;;;;;;;0.03;0.03;;;26.30;99.90;;;;;;5103314;27;20042;-88
2021/09/03 09:48:48;;;;;;;0.50;0.50;;;26.50;99.90;;;;;;5103888;28;20531;-87
2021/09/03 09:51:21;;;;;;;0.10;0.10;;;26.80;99.90;;;;;;5104488;28;20110;-87
2021/09/03 09:53:59;;;;;;;0.10;0.10;;;26.40;99.90;;;;;;5101755;27;20028;-88
2021/09/03 09:56:28;;;;;;;0.30;0.28;;;27.00;99.90;;;;;;5098983;28;20027;-86
2021/09/03 09:58:57;;;;;;;0.00;0.00;;;26.90;99.90;;;;;;5102477;27;20031;-88
2021/09/03 10:01:23;;;;;;;0.00;0.00;;;25.40;99.90;;;;;;5102576;27;20027;-88
2021/09/03 10:03:50;;;;;;;0.03;0.03;;;25.10;99.90;;;;;;5102197;28;20477;-87
2021/09/03 10:06:17;;;;;;;0.10;0.10;;;27.60;99.90;;;;;;5116827;27;20163;-87
2021/09/03 10:08:48;;;;;;;0.98;0.47;;;27.60;99.90;;;;;;5098381;27;20051;-88
2021/09/03 10:11:15;;;;;;;0.17;0.17;;;28.00;99.90;;;;;;5099157;28;20039;-88
2021/09/03 10:13:41;;;;;;;0.00;0.00;;;26.80;99.90;;;;;;5099344;28;20087;-89
2021/09/03 10:16:07;;;;;;;0.43;0.43;;;25.90;99.90;;;;;;5105372;27;20031;-89
2021/09/03 10:18:33;;;;;;;0.10;0.08;;;25.80;99.90;;;;;;5101151;28;20039;-87
2021/09/03 10:21:02;;;;;;;;;;;25.30;99.90;;;;;;5101139;27;20099;-87
2021/09/03 10:24:14;;;;;;;0.20;0.00;;;26.00;99.90;;;;;;5100170;27;19911;-89
2021/09/03 10:26:47;;;;;;;0.30;0.30;;;26.40;99.90;;;;;;5050248;28;20643;-90
2021/09/03 10:29:24;;;;;;;0.00;0.00;;;26.30;99.90;;;;;;5046301;28;20602;-89
2021/09/03 10:34:47;;;;;;;0.10;0.10;;;26.20;99.90;;;;;;5042618;28;20125;-88
2021/09/03 10:37:16;;;;;;;0.20;0.00;;;25.90;99.90;;;;;;5025603;28;20129;-88
2021/09/03 10:40:05;;;;;;;0.45;0.20;;;25.90;99.90;;;;;;5026635;28;20154;-88
2021/09/03 10:45:22;;;;;;;0.10;0.10;;;26.80;99.90;;;;;;5043656;28;20027;-87
2021/09/03 10:47:58;;;;;;;1.35;0.47;;;27.00;99.90;;;;;;5042571;28;20055;-88
2021/09/03 10:50:34;;;;;;;0.00;0.00;;;24.90;99.90;;;;;;5040269;28;20525;-89
2021/09/03 10:53:24;;;;;;;0.90;0.43;;;25.50;99.90;;;;;;5042219;28;20040;-90
2021/09/03 10:55:58;;;;;;;1.85;0.65;;;25.90;99.90;;;;;;5045879;28;20044;-91
2021/09/03 10:58:36;;;;;;;0.10;0.00;;;25.90;99.90;;;;;;5089417;28;20179;-92
2021/09/03 11:04:02;;;;;;;0.03;0.03;;;25.90;27.00;;;;;;5087834;28;20035;-92
2021/09/03 11:06:30;;;;;;;0.10;0.08;;;25.90;99.90;;;;;;5093476;28;20264;-92
2021/09/03 11:09:02;;;;;;;0.00;0.00;;;25.70;99.90;;;;;;5100447;28;20027;-91
2021/09/03 11:11:35;;;;;;;0.00;0.00;;;25.70;99.90;;;;;;5097664;28;20034;-91
2021/09/03 11:14:02;;;;;;;0.35;0.35;;;26.10;99.90;;;;;;5097349;28;20053;-92
2021/09/03 11:16:39;;;;;;;0.00;0.00;;;25.50;99.90;;;;;;5099713;28;20038;-91
2021/09/03 11:19:28;;;;;;;0.20;0.20;;;25.40;99.90;;;;;;5115025;28;20565;-89
2021/09/03 11:22:12;;;;;;;0.30;0.20;;;25.50;99.90;;;;;;5091640;28;20032;-91
2021/09/03 11:24:42;;;;;;;0.10;0.10;;;25.80;99.90;;;;;;5089043;28;20016;-91
2021/09/03 11:27:12;;;;;;;0.35;0.20;;;25.30;99.90;;;;;;5093142;28;20058;-88
2021/09/03 11:29:46;;;;;;;0.22;0.20;;;25.70;99.90;;;;;;5092297;27;20027;-88
2021/09/03 11:32:21;;;;;;;0.10;0.05;;;25.70;99.90;;;;;;5097869;27;20028;-88
2021/09/03 11:35:05;;;;;;;0.30;0.30;;;25.30;99.90;;;;;;5095714;27;20088;-89
2021/09/03 11:37:39;;;;;;;0.25;0.17;;;25.10;99.90;;;;;;5096941;27;20057;-88
2021/09/03 11:40:12;;;;;;;0.10;0.10;;;24.90;99.90;;;;;;5102731;28;20106;-89
2021/09/03 11:42:41;;;;;;;0.30;0.30;;;24.90;99.90;;;;;;5087532;28;20062;-89
2021/09/03 11:45:09;;;;;;;0.20;0.20;;;25.00;99.90;;;;;;5134575;27;20020;-90
2021/09/03 11:47:56;;;;;;;0.30;0.25;;;24.90;99.90;;;;;;5105906;27;20771;-88
2021/09/03 11:50:34;;;;;;;0.10;0.10;;;24.60;99.90;;;;;;5100933;28;20031;-88
2021/09/03 11:53:03;;;;;;;0.30;0.30;;;24.30;99.90;;;;;;5095813;27;20039;-88
2021/09/03 11:55:37;;;;;;;0.17;0.08;;;24.50;99.90;;;;;;5092305;28;20764;-87
2021/09/03 11:58:05;;;;;;;0.40;0.10;;;24.40;99.90;;;;;;5089222;28;20047;-88
2021/09/03 12:00:43;;;;;;;1.50;0.52;;;24.20;99.90;;;;;;5104280;28;20137;-87
2021/09/03 12:03:11;;;;;;;0.10;0.10;;;24.20;99.90;;;;;;5103224;28;20059;-85
2021/09/03 12:05:38;;;;;;;0.20;0.20;;;24.40;99.90;;;;;;5101388;28;20023;-84
2021/09/03 12:08:12;;;;;;;0.05;0.05;;;24.40;99.90;;;;;;5099726;28;20100;-88
2021/09/03 12:11:05;;;;;;;0.03;0.03;;;25.00;99.90;;;;;;5098045;27;20406;-87
2021/09/03 12:13:36;;;;;;;0.00;0.00;;;25.70;99.90;;;;;;5090204;28;20024;-86
2021/09/03 12:16:09;;;;;;;0.03;0.03;;;25.50;99.40;;;;;;5100260;28;20086;-87
2021/09/03 12:18:44;;;;;;;0.68;0.28;;;25.20;99.50;;;;;;5103637;28;20039;-86
2021/09/03 12:21:22;;;;;;;0.15;0.15;;;25.10;98.90;;;;;;5102232;28;20084;-87
2021/09/03 12:23:53;;;;;;;0.00;0.00;;;25.50;98.90;;;;;;5100622;28;20031;-86
2021/09/03 12:26:23;;;;;;;0.40;0.40;;;26.10;98.10;;;;;;5096458;27;20050;-86
2021/09/03 12:28:54;;;;;;;0.00;0.00;;;26.30;96.80;;;;;;5101234;28;20040;-88
2021/09/03 12:31:26;;;;;;;0.38;0.25;;;26.30;96.00;;;;;;5103084;28;20591;-87
2021/09/03 12:33:56;;;;;;;1.45;0.40;;;25.90;95.80;;;;;;5101883;27;20081;-87
2021/09/03 12:36:24;;;;;;;2.65;0.47;;;26.00;96.10;;;;;;5091489;28;20115;-88
2021/09/03 12:38:58;;;;;;;0.20;0.20;;;26.20;95.50;;;;;;5088982;27;20047;-88
2021/09/03 12:41:35;;;;;;;0.20;0.20;;;26.60;94.40;;;;;;5098465;27;20859;-86
2021/09/03 12:44:01;;;;;;;0.00;0.00;;;26.70;93.90;;;;;;5112742;27;20019;-87
2021/09/03 12:46:32;;;;;;;;;;;26.60;93.60;;;;;;5102323;28;20036;-87
2021/09/03 12:49:33;;;;;;;0.10;0.08;;;26.60;92.60;;;;;;5115917;27;20299;-87
2021/09/03 12:52:09;;;;;;;0.25;0.25;;;26.10;92.80;;;;;;5102883;27;20085;-87
2021/09/03 12:54:34;;;;;;;;;;;26.20;92.50;;;;;;5104649;27;20028;-87
2021/09/03 12:57:00;;;;;;;0.00;0.00;;;26.10;92.40;;;;;;5088733;28;19927;-88
2021/09/03 12:59:26;;;;;;;0.10;0.10;;;26.30;98.40;;;;;;5097021;28;20020;-88
2021/09/03 13:01:52;;;;;;;0.00;0.00;;;26.40;92.20;;;;;;5099897;27;20139;-88